Time;durP1;ratioP1;P1;durP2;ratioP2;P2;SDS_P1;SDS_P2;PMS_P1;PMS_P2;Temp;Humidity;BMP_temperature;BMP_pressure;BME280_temperature;BME280_humidity;BME280_pressure;Samples;Min_cycle;Max_cycle;Signal;HPM_P1;HPM_P2
2023/12/13 00:02:18;;;;;;;14.82;6.13;;;;;;;;;;4998519;28;20112;-77
2023/12/13 00:04:44;;;;;;;16.92;6.35;;;;;;;;;;4994063;28;20317;-76
2023/12/13 00:07:10;;;;;;;16.67;6.40;;;;;;;;;;4992465;28;20481;-77
2023/12/13 00:09:37;;;;;;;18.35;7.20;;;;;;;;;;4998474;28;20032;-76
2023/12/13 00:12:03;;;;;;;23.90;7.30;;;;;;;;;;4997587;28;20310;-77
2023/12/13 00:14:29;;;;;;;19.85;7.05;;;;;;;;;;4995859;28;20671;-77
2023/12/13 00:16:55;;;;;;;22.75;6.68;;;;;;;;;;4991961;28;20460;-77
2023/12/13 00:19:21;;;;;;;17.58;5.90;;;;;;;;;;4997491;28;20323;-77
2023/12/13 00:21:47;;;;;;;14.80;5.75;;;;;;;;;;4996758;28;20025;-77
2023/12/13 00:24:14;;;;;;;16.23;5.13;;;;;;;;;;4995148;28;20725;-77
2023/12/13 00:26:40;;;;;;;16.60;5.20;;;;;;;;;;4994174;28;20510;-76
2023/12/13 00:29:06;;;;;;;14.30;5.25;;;;;;;;;;4997164;28;20364;-77
2023/12/13 00:31:32;;;;;;;13.48;5.45;;;;;;;;;;4993520;28;20025;-77
2023/12/13 00:33:58;;;;;;;15.10;4.90;;;;;;;;;;4992540;28;20321;-77
2023/12/13 00:36:24;;;;;;;11.65;4.25;;;;;;;;;;4997183;28;20198;-76
2023/12/13 00:38:50;;;;;;;15.18;4.53;;;;;;;;;;4993948;28;20332;-77
2023/12/13 00:41:16;;;;;;;12.95;4.20;;;;;;;;;;4995770;28;20068;-77
2023/12/13 00:43:42;;;;;;;7.80;3.00;;;;;;;;;;4950986;28;20041;-77
2023/12/13 00:46:19;;;;;;;11.10;3.15;;;;;;;;;;4999731;28;20544;-77
2023/12/13 00:48:47;;;;;;;10.45;3.38;;;;;;;;;;4991451;28;20301;-77
2023/12/13 00:51:21;;;;;;;10.40;2.85;;;;;;;;;;4995718;28;20973;-77
2023/12/13 00:53:47;;;;;;;9.18;3.45;;;;;;;;;;4999211;28;20417;-79
2023/12/13 00:56:14;;;;;;;11.63;3.20;;;;;;;;;;4994787;28;20245;-77
2023/12/13 00:58:40;;;;;;;8.85;2.85;;;;;;;;;;4989011;28;20265;-77
2023/12/13 01:01:06;;;;;;;12.65;3.30;;;;;;;;;;4994017;28;20051;-77
2023/12/13 01:03:33;;;;;;;9.80;3.28;;;;;;;;;;4990117;28;20474;-77
2023/12/13 01:05:59;;;;;;;8.52;3.20;;;;;;;;;;4996454;28;20423;-77
2023/12/13 01:08:25;;;;;;;11.25;3.03;;;;;;;;;;4997780;28;20801;-76
2023/12/13 01:10:52;;;;;;;7.53;2.80;;;;;;;;;;4989589;28;20036;-77
2023/12/13 01:13:18;;;;;;;8.38;2.95;;;;;;;;;;4995926;28;20075;-77
2023/12/13 01:15:44;;;;;;;8.23;3.10;;;;;;;;;;4997634;28;20266;-77
2023/12/13 01:18:10;;;;;;;8.77;2.90;;;;;;;;;;4993703;28;20291;-77
2023/12/13 01:20:36;;;;;;;9.93;2.92;;;;;;;;;;4993612;28;20061;-77
2023/12/13 01:23:02;;;;;;;9.80;2.67;;;;;;;;;;4997733;28;20283;-77
2023/12/13 01:25:28;;;;;;;6.65;2.90;;;;;;;;;;4998372;28;20311;-77
2023/12/13 01:27:57;;;;;;;7.47;3.15;;;;;;;;;;4991983;28;20127;-77
2023/12/13 01:30:23;;;;;;;7.63;2.90;;;;;;;;;;4990640;28;20448;-77
2023/12/13 01:32:49;;;;;;;10.30;3.20;;;;;;;;;;4994314;28;20860;-76
2023/12/13 01:35:15;;;;;;;8.70;3.00;;;;;;;;;;4993162;28;20040;-77
2023/12/13 01:37:41;;;;;;;8.00;3.00;;;;;;;;;;4997642;28;20940;-77
2023/12/13 01:40:08;;;;;;;8.35;2.53;;;;;;;;;;4994293;28;20067;-77
2023/12/13 01:42:37;;;;;;;9.45;3.45;;;;;;;;;;4976900;28;20580;-76
2023/12/13 01:45:03;;;;;;;13.75;4.00;;;;;;;;;;4976700;28;20033;-76
2023/12/13 01:47:29;;;;;;;8.65;3.25;;;;;;;;;;4997051;28;20036;-76
2023/12/13 01:49:55;;;;;;;10.65;4.25;;;;;;;;;;4991693;28;20772;-76
2023/12/13 01:52:22;;;;;;;6.07;3.00;;;;;;;;;;4999134;28;20143;-77
2023/12/13 01:54:48;;;;;;;10.10;3.00;;;;;;;;;;4992150;28;20067;-77
2023/12/13 01:57:14;;;;;;;10.30;3.45;;;;;;;;;;4998528;28;20205;-77
2023/12/13 01:59:41;;;;;;;8.25;3.78;;;;;;;;;;4993309;28;20463;-77
2023/12/13 02:02:08;;;;;;;8.70;3.38;;;;;;;;;;4994826;28;20100;-77
2023/12/13 02:04:35;;;;;;;8.35;3.65;;;;;;;;;;4987730;28;20443;-77
2023/12/13 02:07:01;;;;;;;10.43;3.85;;;;;;;;;;4997125;28;20398;-77
2023/12/13 02:09:27;;;;;;;11.65;4.18;;;;;;;;;;4998352;28;20437;-77
2023/12/13 02:11:54;;;;;;;10.45;3.80;;;;;;;;;;4991423;28;20409;-77
2023/12/13 02:14:20;;;;;;;11.25;3.55;;;;;;;;;;4999868;28;20401;-77
2023/12/13 02:16:46;;;;;;;11.13;4.22;;;;;;;;;;4996927;28;20326;-77
2023/12/13 02:19:12;;;;;;;9.93;4.57;;;;;;;;;;4998779;28;20219;-77
2023/12/13 02:21:38;;;;;;;10.88;4.28;;;;;;;;;;4999406;28;20361;-76
2023/12/13 02:24:05;;;;;;;9.10;3.78;;;;;;;;;;4993960;28;20955;-76
2023/12/13 02:26:31;;;;;;;9.40;3.88;;;;;;;;;;5000667;28;20790;-79
2023/12/13 02:28:59;;;;;;;7.38;3.47;;;;;;;;;;5001460;28;20915;-76
2023/12/13 02:31:26;;;;;;;10.18;4.60;;;;;;;;;;5002621;28;20364;-76
2023/12/13 02:33:52;;;;;;;11.65;4.07;;;;;;;;;;4985644;28;20547;-76
2023/12/13 02:36:18;;;;;;;10.10;3.88;;;;;;;;;;4997737;28;20154;-76
2023/12/13 02:38:44;;;;;;;10.48;4.60;;;;;;;;;;5001954;28;20157;-76
2023/12/13 02:41:10;;;;;;;9.60;4.13;;;;;;;;;;4998315;28;20071;-77
2023/12/13 02:43:37;;;;;;;13.35;5.25;;;;;;;;;;4962517;28;20766;-79
2023/12/13 02:46:03;;;;;;;10.38;4.28;;;;;;;;;;5001083;28;20143;-78
2023/12/13 02:48:29;;;;;;;11.88;4.20;;;;;;;;;;5003993;28;20037;-78
2023/12/13 02:50:55;;;;;;;9.73;4.25;;;;;;;;;;4999727;28;20106;-79
2023/12/13 02:53:21;;;;;;;11.73;4.40;;;;;;;;;;5007978;28;20421;-78
2023/12/13 02:55:48;;;;;;;11.65;4.75;;;;;;;;;;5010042;28;20033;-78
2023/12/13 02:58:14;;;;;;;15.50;5.18;;;;;;;;;;5004987;28;20036;-78
2023/12/13 03:00:40;;;;;;;11.52;4.82;;;;;;;;;;5003860;28;20571;-79
2023/12/13 03:03:08;;;;;;;14.13;4.97;;;;;;;;;;5000439;28;20268;-79
2023/12/13 03:05:34;;;;;;;12.48;4.82;;;;;;;;;;5002564;28;20040;-79
2023/12/13 03:08:00;;;;;;;12.45;4.38;;;;;;;;;;4998576;28;20210;-76
2023/12/13 03:10:27;;;;;;;9.57;4.40;;;;;;;;;;5001987;28;20332;-76
2023/12/13 03:12:55;;;;;;;8.77;4.40;;;;;;;;;;4993936;28;20647;-77
2023/12/13 03:15:21;;;;;;;10.18;4.60;;;;;;;;;;4988696;28;20122;-77
2023/12/13 03:17:47;;;;;;;12.27;4.38;;;;;;;;;;4990817;28;20029;-77
2023/12/13 03:20:13;;;;;;;10.85;4.25;;;;;;;;;;4996175;28;20112;-77
2023/12/13 03:22:39;;;;;;;11.98;4.63;;;;;;;;;;4998641;28;20039;-77
2023/12/13 03:25:06;;;;;;;9.02;4.30;;;;;;;;;;4997292;28;20075;-77
2023/12/13 03:27:32;;;;;;;10.32;4.68;;;;;;;;;;5009550;28;20342;-77
2023/12/13 03:29:58;;;;;;;12.95;4.55;;;;;;;;;;5029779;28;20040;-77
2023/12/13 03:32:24;;;;;;;9.65;4.15;;;;;;;;;;5033154;28;20313;-77
2023/12/13 03:34:50;;;;;;;8.80;4.40;;;;;;;;;;5026114;28;20071;-77
2023/12/13 03:37:16;;;;;;;11.88;4.05;;;;;;;;;;5022040;28;20059;-77
2023/12/13 03:39:42;;;;;;;12.13;4.40;;;;;;;;;;5032563;28;20032;-79
2023/12/13 03:42:08;;;;;;;10.88;4.53;;;;;;;;;;5032557;28;20103;-77
2023/12/13 03:44:34;;;;;;;8.73;4.38;;;;;;;;;;4985360;28;20024;-76
2023/12/13 03:47:00;;;;;;;10.23;4.97;;;;;;;;;;5012128;28;20733;-77
2023/12/13 03:49:26;;;;;;;11.82;4.97;;;;;;;;;;5001786;28;20686;-77
2023/12/13 03:51:52;;;;;;;12.68;5.05;;;;;;;;;;5004633;28;20193;-77
2023/12/13 03:54:18;;;;;;;12.90;5.28;;;;;;;;;;5005726;28;20592;-76
2023/12/13 03:56:44;;;;;;;14.75;5.22;;;;;;;;;;5000761;28;20163;-76
2023/12/13 03:59:10;;;;;;;10.70;5.10;;;;;;;;;;5008255;28;20122;-76
2023/12/13 04:01:37;;;;;;;12.38;5.80;;;;;;;;;;4996712;28;20222;-76
2023/12/13 04:04:03;;;;;;;14.25;5.40;;;;;;;;;;4996683;28;20152;-77
2023/12/13 04:06:29;;;;;;;12.77;5.47;;;;;;;;;;4999666;28;20297;-76
2023/12/13 04:08:55;;;;;;;16.25;5.70;;;;;;;;;;4993884;28;20300;-76
2023/12/13 04:11:21;;;;;;;13.55;5.32;;;;;;;;;;4996603;28;20547;-77
2023/12/13 04:13:47;;;;;;;10.48;5.88;;;;;;;;;;4990628;28;20760;-76
2023/12/13 04:16:13;;;;;;;12.27;5.55;;;;;;;;;;4997156;28;20603;-76
2023/12/13 04:18:39;;;;;;;14.82;6.63;;;;;;;;;;4994628;28;20556;-76
2023/12/13 04:21:06;;;;;;;14.48;4.82;;;;;;;;;;4991112;28;20032;-77
2023/12/13 04:23:32;;;;;;;12.55;5.80;;;;;;;;;;4999594;28;20139;-76
2023/12/13 04:25:58;;;;;;;11.98;5.40;;;;;;;;;;5001911;28;20475;-79
2023/12/13 04:28:24;;;;;;;12.90;5.63;;;;;;;;;;5002450;28;20653;-77
2023/12/13 04:30:50;;;;;;;11.02;5.45;;;;;;;;;;5001111;28;20565;-79
2023/12/13 04:33:18;;;;;;;14.40;5.95;;;;;;;;;;4999652;28;20195;-76
2023/12/13 04:35:44;;;;;;;11.95;4.90;;;;;;;;;;4997432;28;20401;-76
2023/12/13 04:38:10;;;;;;;15.80;6.00;;;;;;;;;;4995354;28;20761;-76
2023/12/13 04:40:36;;;;;;;13.82;5.80;;;;;;;;;;4999674;28;20564;-78
2023/12/13 04:43:02;;;;;;;15.05;6.75;;;;;;;;;;4952759;28;20638;-76
2023/12/13 04:45:28;;;;;;;18.83;9.38;;;;;;;;;;4992416;28;20422;-76
2023/12/13 04:47:54;;;;;;;19.05;9.48;;;;;;;;;;4994554;28;20477;-78
2023/12/13 04:50:22;;;;;;;21.00;11.05;;;;;;;;;;4994197;28;20025;-78
2023/12/13 04:52:49;;;;;;;20.02;10.48;;;;;;;;;;5001877;28;20040;-79
2023/12/13 04:55:15;;;;;;;21.70;9.50;;;;;;;;;;5004902;28;20328;-78
2023/12/13 04:57:41;;;;;;;23.92;11.35;;;;;;;;;;5007403;28;20088;-78
2023/12/13 05:00:08;;;;;;;25.80;12.02;;;;;;;;;;4997910;28;20045;-79
2023/12/13 05:02:34;;;;;;;25.83;11.98;;;;;;;;;;5000574;28;20380;-78
2023/12/13 05:05:00;;;;;;;23.88;11.68;;;;;;;;;;5004557;28;20303;-79
2023/12/13 05:07:27;;;;;;;28.42;11.65;;;;;;;;;;5001744;28;20572;-78
2023/12/13 05:09:55;;;;;;;25.30;11.15;;;;;;;;;;5003755;28;20058;-79
2023/12/13 05:12:21;;;;;;;24.63;11.88;;;;;;;;;;5002876;28;20025;-78
2023/12/13 05:14:47;;;;;;;24.30;13.55;;;;;;;;;;4994529;28;20606;-76
2023/12/13 05:17:14;;;;;;;24.10;11.80;;;;;;;;;;4993854;28;20162;-78
2023/12/13 05:19:40;;;;;;;21.77;10.88;;;;;;;;;;4995324;28;20713;-76
2023/12/13 05:22:06;;;;;;;24.73;11.52;;;;;;;;;;4995947;28;20421;-79
2023/12/13 05:24:32;;;;;;;25.95;12.05;;;;;;;;;;4999114;28;20044;-79
2023/12/13 05:26:58;;;;;;;25.08;11.95;;;;;;;;;;5005701;28;20881;-79
2023/12/13 05:29:24;;;;;;;24.83;11.02;;;;;;;;;;4998961;28;20102;-76
2023/12/13 05:31:51;;;;;;;26.17;11.30;;;;;;;;;;4995895;28;20064;-76
2023/12/13 05:34:17;;;;;;;23.67;10.88;;;;;;;;;;4989645;28;20423;-79
2023/12/13 05:36:43;;;;;;;22.50;10.77;;;;;;;;;;4992716;28;20259;-78
2023/12/13 05:39:09;;;;;;;19.48;9.88;;;;;;;;;;4988139;28;20409;-76
2023/12/13 05:41:35;;;;;;;25.77;11.15;;;;;;;;;;4989820;28;20938;-79
2023/12/13 05:44:02;;;;;;;24.38;11.10;;;;;;;;;;4956199;28;20809;-78
2023/12/13 05:46:33;;;;;;;24.35;11.25;;;;;;;;;;4994064;28;20069;-77
2023/12/13 05:49:00;;;;;;;19.38;10.65;;;;;;;;;;4995182;28;20126;-76
2023/12/13 05:51:26;;;;;;;23.52;10.63;;;;;;;;;;4991739;28;20261;-77
2023/12/13 05:53:52;;;;;;;22.15;11.23;;;;;;;;;;4991062;28;20119;-77
2023/12/13 05:56:18;;;;;;;24.85;11.07;;;;;;;;;;4996789;28;20323;-77
2023/12/13 05:58:44;;;;;;;22.63;11.20;;;;;;;;;;4996560;28;20403;-76
2023/12/13 06:01:10;;;;;;;25.13;11.15;;;;;;;;;;4992862;28;20771;-77
2023/12/13 06:03:36;;;;;;;24.60;11.75;;;;;;;;;;4994872;28;20340;-77
2023/12/13 06:06:04;;;;;;;23.85;9.93;;;;;;;;;;4995585;28;20304;-76
2023/12/13 06:08:30;;;;;;;25.30;10.38;;;;;;;;;;4991579;28;20531;-77
2023/12/13 06:10:58;;;;;;;22.23;10.57;;;;;;;;;;4998192;28;20855;-77
2023/12/13 06:13:24;;;;;;;20.95;10.25;;;;;;;;;;4996731;28;20598;-77
2023/12/13 06:15:50;;;;;;;21.35;10.38;;;;;;;;;;4995491;28;20036;-76
2023/12/13 06:18:17;;;;;;;21.30;10.20;;;;;;;;;;4995984;28;20036;-77
2023/12/13 06:20:43;;;;;;;18.70;9.93;;;;;;;;;;4994473;28;20728;-77
2023/12/13 06:23:09;;;;;;;20.83;9.55;;;;;;;;;;4994853;28;20271;-77
2023/12/13 06:25:35;;;;;;;19.88;9.20;;;;;;;;;;4998503;28;20432;-77
2023/12/13 06:28:01;;;;;;;20.63;9.80;;;;;;;;;;4997606;28;20556;-77
2023/12/13 06:30:27;;;;;;;20.42;8.88;;;;;;;;;;4995660;28;21042;-76
2023/12/13 06:32:53;;;;;;;18.50;9.50;;;;;;;;;;4996495;28;20822;-77
2023/12/13 06:35:19;;;;;;;21.38;9.32;;;;;;;;;;4997565;28;20853;-77
2023/12/13 06:37:45;;;;;;;22.27;9.82;;;;;;;;;;4998150;28;20028;-77
2023/12/13 06:40:14;;;;;;;21.67;9.30;;;;;;;;;;4993836;28;20072;-77
2023/12/13 06:42:40;;;;;;;19.70;8.75;;;;;;;;;;4969733;28;20359;-76
2023/12/13 06:45:06;;;;;;;21.75;10.57;;;;;;;;;;4981973;28;20033;-78
2023/12/13 06:47:32;;;;;;;18.52;9.25;;;;;;;;;;4998532;28;20415;-79
2023/12/13 06:49:58;;;;;;;22.45;9.43;;;;;;;;;;4988964;28;20060;-76
2023/12/13 06:52:25;;;;;;;19.40;8.73;;;;;;;;;;4997244;28;20369;-77
2023/12/13 06:54:51;;;;;;;18.02;9.65;;;;;;;;;;4995345;28;20072;-76
2023/12/13 06:57:17;;;;;;;18.23;7.70;;;;;;;;;;4998676;28;20041;-76
2023/12/13 06:59:43;;;;;;;17.48;9.15;;;;;;;;;;4998125;28;20037;-76
2023/12/13 07:02:09;;;;;;;20.08;8.68;;;;;;;;;;4990604;28;20354;-77
2023/12/13 07:04:35;;;;;;;15.90;8.15;;;;;;;;;;4987694;28;20531;-76
2023/12/13 07:07:01;;;;;;;16.80;8.07;;;;;;;;;;4990506;28;20269;-84
